sensor_id;sensor_type;location;lat;lon;timestamp;pressure;altitude;pressure_sealevel;temperature;humidity
37648;BME280;23490;53.656;10.076;2023-07-09T00:00:17;97291.50;;;-145.95;57.55
37648;BME280;23490;53.656;10.076;2023-07-09T00:02:44;97262.59;;;-145.95;58.80
37648;BME280;23490;53.656;10.076;2023-07-09T00:05:15;97217.19;;;-145.95;57.77
37648;BME280;23490;53.656;10.076;2023-07-09T00:07:42;97248.16;;;-145.95;56.83
37648;BME280;23490;53.656;10.076;2023-07-09T00:10:19;97270.84;;;-145.95;57.74
37648;BME280;23490;53.656;10.076;2023-07-09T00:12:45;97299.75;;;-145.95;56.61
37648;BME280;23490;53.656;10.076;2023-07-09T00:15:12;97289.44;;;-145.95;56.92
37648;BME280;23490;53.656;10.076;2023-07-09T00:17:38;97299.75;;;-145.95;57.39
37648;BME280;23490;53.656;10.076;2023-07-09T00:20:07;97308.00;;;-145.95;57.86
37648;BME280;23490;53.656;10.076;2023-07-09T00:22:40;97283.25;;;-145.95;57.37
37648;BME280;23490;53.656;10.076;2023-07-09T00:25:05;97345.16;;;-145.95;56.75
37648;BME280;23490;53.656;10.076;2023-07-09T00:27:31;97287.38;;;-145.95;56.74
37648;BME280;23490;53.656;10.076;2023-07-09T00:29:56;97303.88;;;-145.95;56.70
37648;BME280;23490;53.656;10.076;2023-07-09T00:32:22;97320.38;;;-145.95;57.19
37648;BME280;23490;53.656;10.076;2023-07-09T00:34:47;97357.53;;;-145.95;57.51
37648;BME280;23490;53.656;10.076;2023-07-09T00:37:18;97367.84;;;-145.95;57.94
37648;BME280;23490;53.656;10.076;2023-07-09T00:39:45;97330.72;;;-145.95;56.87
37648;BME280;23490;53.656;10.076;2023-07-09T00:42:15;97349.28;;;-145.95;57.98
37648;BME280;23490;53.656;10.076;2023-07-09T00:44:43;97303.88;;;-145.95;57.21
37648;BME280;23490;53.656;10.076;2023-07-09T00:48:00;97310.06;;;-145.95;56.89
37648;BME280;23490;53.656;10.076;2023-07-09T00:50:15;97324.50;;;-145.95;56.18
37648;BME280;23490;53.656;10.076;2023-07-09T00:52:54;97320.38;;;-145.95;56.01
37648;BME280;23490;53.656;10.076;2023-07-09T00:55:25;97361.66;;;-145.95;57.20
37648;BME280;23490;53.656;10.076;2023-07-09T00:57:58;97376.13;;;-145.95;57.91
37648;BME280;23490;53.656;10.076;2023-07-09T01:00:32;97365.78;;;-145.95;59.88
37648;BME280;23490;53.656;10.076;2023-07-09T01:03:02;97386.44;;;-145.95;57.31
37648;BME280;23490;53.656;10.076;2023-07-09T01:05:28;97320.38;;;-145.95;57.07
37648;BME280;23490;53.656;10.076;2023-07-09T01:07:53;97312.13;;;-145.95;56.22
37648;BME280;23490;53.656;10.076;2023-07-09T01:10:19;97353.41;;;-145.95;57.00
37648;BME280;23490;53.656;10.076;2023-07-09T01:12:46;97386.44;;;-145.95;56.61
37648;BME280;23490;53.656;10.076;2023-07-09T01:15:12;97382.31;;;-145.95;58.20
37648;BME280;23490;53.656;10.076;2023-07-09T01:17:40;97440.09;;;-145.95;58.69
37648;BME280;23490;53.656;10.076;2023-07-09T01:20:15;97392.63;;;-145.95;57.61
37648;BME280;23490;53.656;10.076;2023-07-09T01:22:41;97458.69;;;-145.95;57.64
37648;BME280;23490;53.656;10.076;2023-07-09T01:25:07;97431.84;;;-145.95;57.40
37648;BME280;23490;53.656;10.076;2023-07-09T01:27:42;97423.59;;;-145.95;57.63
37648;BME280;23490;53.656;10.076;2023-07-09T01:30:10;97442.16;;;-145.95;57.60
37648;BME280;23490;53.656;10.076;2023-07-09T01:32:37;97444.22;;;-145.95;57.31
37648;BME280;23490;53.656;10.076;2023-07-09T01:35:04;97456.63;;;-145.95;56.59
37648;BME280;23490;53.656;10.076;2023-07-09T01:37:34;97479.31;;;-145.95;57.30
37648;BME280;23490;53.656;10.076;2023-07-09T01:40:00;97427.72;;;-145.95;57.46
37648;BME280;23490;53.656;10.076;2023-07-09T01:42:27;97398.81;;;-145.95;56.71
37648;BME280;23490;53.656;10.076;2023-07-09T01:44:54;97469.00;;;-145.95;56.93
37648;BME280;23490;53.656;10.076;2023-07-09T01:47:20;97485.50;;;-145.95;56.17
37648;BME280;23490;53.656;10.076;2023-07-09T01:49:46;97469.00;;;-145.95;56.08
37648;BME280;23490;53.656;10.076;2023-07-09T01:52:12;97512.34;;;-145.95;56.00
37648;BME280;23490;53.656;10.076;2023-07-09T01:54:39;97448.34;;;-145.95;57.50
37648;BME280;23490;53.656;10.076;2023-07-09T01:57:14;97460.75;;;-145.95;55.53
37648;BME280;23490;53.656;10.076;2023-07-09T01:59:40;97481.38;;;-145.95;56.60
37648;BME280;23490;53.656;10.076;2023-07-09T02:02:07;97481.38;;;-145.95;56.93
37648;BME280;23490;53.656;10.076;2023-07-09T02:04:33;97502.03;;;-145.95;56.83
37648;BME280;23490;53.656;10.076;2023-07-09T02:06:58;97444.22;;;-145.95;58.32
37648;BME280;23490;53.656;10.076;2023-07-09T02:09:23;97435.97;;;-145.95;55.98
37648;BME280;23490;53.656;10.076;2023-07-09T02:11:48;97444.22;;;-145.95;56.05
37648;BME280;23490;53.656;10.076;2023-07-09T02:14:14;97506.16;;;-145.95;56.33
37648;BME280;23490;53.656;10.076;2023-07-09T02:16:39;97448.34;;;-145.95;58.06
37648;BME280;23490;53.656;10.076;2023-07-09T02:19:05;97471.06;;;-145.95;56.16
37648;BME280;23490;53.656;10.076;2023-07-09T02:21:30;97440.09;;;-145.95;55.78
37648;BME280;23490;53.656;10.076;2023-07-09T02:23:56;97559.81;;;-145.95;56.54
37648;BME280;23490;53.656;10.076;2023-07-09T02:26:21;97568.06;;;-145.95;58.90
37648;BME280;23490;53.656;10.076;2023-07-09T02:28:46;97514.41;;;-145.95;58.11
37648;BME280;23490;53.656;10.076;2023-07-09T02:31:12;97510.28;;;-145.95;57.92
37648;BME280;23490;53.656;10.076;2023-07-09T02:33:37;97580.47;;;-145.95;57.37
37648;BME280;23490;53.656;10.076;2023-07-09T02:36:03;97530.91;;;-145.95;57.66
37648;BME280;23490;53.656;10.076;2023-07-09T02:38:28;97592.84;;;-145.95;60.24
37648;BME280;23490;53.656;10.076;2023-07-09T02:40:53;97613.47;;;-145.95;60.80
37648;BME280;23490;53.656;10.076;2023-07-09T02:43:19;97580.47;;;-145.95;59.90
37648;BME280;23490;53.656;10.076;2023-07-09T02:45:44;97522.66;;;-145.95;59.24
37648;BME280;23490;53.656;10.076;2023-07-09T02:48:09;97535.03;;;-145.95;59.97
37648;BME280;23490;53.656;10.076;2023-07-09T02:50:35;97601.09;;;-145.95;62.64
37648;BME280;23490;53.656;10.076;2023-07-09T02:53:00;97568.06;;;-145.95;61.22
37648;BME280;23490;53.656;10.076;2023-07-09T02:55:26;97609.34;;;-145.95;61.73
37648;BME280;23490;53.656;10.076;2023-07-09T02:57:51;97683.66;;;-145.95;62.93
37648;BME280;23490;53.656;10.076;2023-07-09T03:00:17;97636.19;;;-145.95;62.64
37648;BME280;23490;53.656;10.076;2023-07-09T03:02:43;97638.25;;;-145.95;63.69
37648;BME280;23490;53.656;10.076;2023-07-09T03:05:08;97625.88;;;-145.95;64.24
37648;BME280;23490;53.656;10.076;2023-07-09T03:07:35;97617.59;;;-145.95;62.91
37648;BME280;23490;53.656;10.076;2023-07-09T03:10:01;97648.56;;;-145.95;63.01
37648;BME280;23490;53.656;10.076;2023-07-09T03:12:26;97724.94;;;-145.95;64.70
37648;BME280;23490;53.656;10.076;2023-07-09T03:14:51;97708.44;;;-145.95;64.49
37648;BME280;23490;53.656;10.076;2023-07-09T03:17:17;97654.75;;;-145.95;64.68
37648;BME280;23490;53.656;10.076;2023-07-09T03:19:42;97696.06;;;-145.95;64.81
37648;BME280;23490;53.656;10.076;2023-07-09T03:22:07;97706.38;;;-145.95;65.02
37648;BME280;23490;53.656;10.076;2023-07-09T03:24:33;97683.66;;;-145.95;63.11
37648;BME280;23490;53.656;10.076;2023-07-09T03:26:58;97675.41;;;-145.95;63.57
37648;BME280;23490;53.656;10.076;2023-07-09T03:29:23;97675.41;;;-145.95;63.25
37648;BME280;23490;53.656;10.076;2023-07-09T03:31:49;97634.13;;;-145.95;63.11
37648;BME280;23490;53.656;10.076;2023-07-09T03:34:14;97654.75;;;-145.95;63.75
37648;BME280;23490;53.656;10.076;2023-07-09T03:36:41;97665.09;;;-145.95;64.52
37648;BME280;23490;53.656;10.076;2023-07-09T03:39:06;97677.47;;;-145.95;65.09
37648;BME280;23490;53.656;10.076;2023-07-09T03:41:32;97691.91;;;-145.95;64.35
37648;BME280;23490;53.656;10.076;2023-07-09T03:43:58;97669.22;;;-145.95;64.19
37648;BME280;23490;53.656;10.076;2023-07-09T03:46:24;97652.69;;;-145.95;60.80
37648;BME280;23490;53.656;10.076;2023-07-09T03:48:49;97712.56;;;-145.95;62.46
37648;BME280;23490;53.656;10.076;2023-07-09T03:51:16;97679.53;;;-145.95;64.29
37648;BME280;23490;53.656;10.076;2023-07-09T03:53:41;97677.47;;;-145.95;63.30
37648;BME280;23490;53.656;10.076;2023-07-09T03:56:07;97642.38;;;-145.95;62.93
37648;BME280;23490;53.656;10.076;2023-07-09T03:58:32;97671.28;;;-145.95;64.16
37648;BME280;23490;53.656;10.076;2023-07-09T04:00:57;97644.44;;;-145.95;62.98
37648;BME280;23490;53.656;10.076;2023-07-09T04:03:23;97679.53;;;-145.95;64.04
37648;BME280;23490;53.656;10.076;2023-07-09T04:05:49;97671.28;;;-145.95;65.12
37648;BME280;23490;53.656;10.076;2023-07-09T04:08:15;97708.44;;;-145.95;64.90
37648;BME280;23490;53.656;10.076;2023-07-09T04:10:41;97660.97;;;-145.95;62.97
37648;BME280;23490;53.656;10.076;2023-07-09T04:13:06;97621.75;;;-145.95;59.65
37648;BME280;23490;53.656;10.076;2023-07-09T04:15:31;97679.53;;;-145.95;63.62
37648;BME280;23490;53.656;10.076;2023-07-09T04:17:57;97658.91;;;-145.95;60.81
37648;BME280;23490;53.656;10.076;2023-07-09T04:20:22;97642.38;;;-145.95;62.77
37648;BME280;23490;53.656;10.076;2023-07-09T04:22:48;97663.03;;;-145.95;59.83
37648;BME280;23490;53.656;10.076;2023-07-09T04:25:14;97642.38;;;-145.95;61.26
37648;BME280;23490;53.656;10.076;2023-07-09T04:27:40;97625.88;;;-145.95;63.21
37648;BME280;23490;53.656;10.076;2023-07-09T04:30:08;97638.25;;;-145.95;63.06
37648;BME280;23490;53.656;10.076;2023-07-09T04:32:35;97679.53;;;-145.95;64.51
37648;BME280;23490;53.656;10.076;2023-07-09T04:35:01;97640.31;;;-145.95;59.57
37648;BME280;23490;53.656;10.076;2023-07-09T04:37:27;97609.34;;;-145.95;58.57
37648;BME280;23490;53.656;10.076;2023-07-09T04:39:53;97584.59;;;-145.95;60.04
37648;BME280;23490;53.656;10.076;2023-07-09T04:42:18;97588.72;;;-145.95;60.94
37648;BME280;23490;53.656;10.076;2023-07-09T04:44:44;97601.09;;;-145.95;58.60
37648;BME280;23490;53.656;10.076;2023-07-09T04:47:10;97588.72;;;-145.95;60.83
37648;BME280;23490;53.656;10.076;2023-07-09T04:49:37;97613.47;;;-145.95;57.94
37648;BME280;23490;53.656;10.076;2023-07-09T04:52:03;97572.19;;;-145.95;56.59
37648;BME280;23490;53.656;10.076;2023-07-09T04:54:28;97632.06;;;-145.95;58.64
37648;BME280;23490;53.656;10.076;2023-07-09T04:56:54;97603.16;;;-145.95;62.29
37648;BME280;23490;53.656;10.076;2023-07-09T04:59:21;97613.47;;;-145.95;62.40
37648;BME280;23490;53.656;10.076;2023-07-09T05:01:47;97617.59;;;-145.95;62.53
37648;BME280;23490;53.656;10.076;2023-07-09T05:04:12;97561.88;;;-145.95;60.18
37648;BME280;23490;53.656;10.076;2023-07-09T05:06:38;97557.75;;;-145.95;58.74
37648;BME280;23490;53.656;10.076;2023-07-09T05:09:04;97588.72;;;-145.95;60.35
37648;BME280;23490;53.656;10.076;2023-07-09T05:11:33;97526.78;;;-145.95;60.93
37648;BME280;23490;53.656;10.076;2023-07-09T05:13:58;97518.53;;;-145.95;57.84
37648;BME280;23490;53.656;10.076;2023-07-09T05:16:23;97495.81;;;-145.95;56.99
37648;BME280;23490;53.656;10.076;2023-07-09T05:18:49;97514.41;;;-145.95;57.09
37648;BME280;23490;53.656;10.076;2023-07-09T05:21:14;97456.63;;;-145.95;57.11
37648;BME280;23490;53.656;10.076;2023-07-09T05:23:39;97433.91;;;-145.95;56.32
37648;BME280;23490;53.656;10.076;2023-07-09T05:26:05;97440.09;;;-145.95;55.75
37648;BME280;23490;53.656;10.076;2023-07-09T05:28:30;97442.16;;;-145.95;54.68
37648;BME280;23490;53.656;10.076;2023-07-09T05:30:58;97415.34;;;-145.95;54.07
37648;BME280;23490;53.656;10.076;2023-07-09T05:33:23;97407.06;;;-145.95;55.19
37648;BME280;23490;53.656;10.076;2023-07-09T05:35:49;97336.91;;;-145.95;57.01
37648;BME280;23490;53.656;10.076;2023-07-09T05:38:15;97328.66;;;-145.95;55.13
37648;BME280;23490;53.656;10.076;2023-07-09T05:40:41;97367.84;;;-145.95;56.61
37648;BME280;23490;53.656;10.076;2023-07-09T05:43:07;97328.66;;;-145.95;54.10
37648;BME280;23490;53.656;10.076;2023-07-09T05:45:33;97316.25;;;-145.95;54.20
37648;BME280;23490;53.656;10.076;2023-07-09T05:47:59;97279.09;;;-145.95;55.02
37648;BME280;23490;53.656;10.076;2023-07-09T05:50:25;97246.09;;;-145.95;53.32
37648;BME280;23490;53.656;10.076;2023-07-09T05:52:51;97213.06;;;-145.95;52.38
37648;BME280;23490;53.656;10.076;2023-07-09T05:55:16;97246.09;;;-145.95;53.29
37648;BME280;23490;53.656;10.076;2023-07-09T05:57:42;97213.06;;;-145.95;53.62
37648;BME280;23490;53.656;10.076;2023-07-09T06:00:08;97266.72;;;-145.95;52.87
37648;BME280;23490;53.656;10.076;2023-07-09T06:02:33;97175.91;;;-145.95;53.12
37648;BME280;23490;53.656;10.076;2023-07-09T06:04:58;97159.41;;;-145.95;52.22
37648;BME280;23490;53.656;10.076;2023-07-09T06:07:24;97155.28;;;-145.95;52.28
37648;BME280;23490;53.656;10.076;2023-07-09T06:09:49;97165.59;;;-145.95;53.54
37648;BME280;23490;53.656;10.076;2023-07-09T06:12:14;97134.63;;;-145.95;50.95
37648;BME280;23490;53.656;10.076;2023-07-09T06:14:40;97163.53;;;-145.95;50.83
37648;BME280;23490;53.656;10.076;2023-07-09T06:17:05;97118.13;;;-145.95;50.65
37648;BME280;23490;53.656;10.076;2023-07-09T06:19:31;97072.72;;;-145.95;51.25
37648;BME280;23490;53.656;10.076;2023-07-09T06:21:56;97056.22;;;-145.95;50.57
37648;BME280;23490;53.656;10.076;2023-07-09T06:24:23;97052.09;;;-145.95;51.10
37648;BME280;23490;53.656;10.076;2023-07-09T06:26:48;96998.41;;;-145.95;51.24
37648;BME280;23490;53.656;10.076;2023-07-09T06:29:14;96998.41;;;-145.95;50.48
37648;BME280;23490;53.656;10.076;2023-07-09T06:31:39;97000.50;;;-145.95;49.80
37648;BME280;23490;53.656;10.076;2023-07-09T06:34:06;96969.53;;;-145.95;49.48
37648;BME280;23490;53.656;10.076;2023-07-09T06:36:33;96944.75;;;-145.95;50.31
37648;BME280;23490;53.656;10.076;2023-07-09T06:38:58;96920.00;;;-145.95;49.35
37648;BME280;23490;53.656;10.076;2023-07-09T06:41:24;96934.44;;;-145.95;49.14
37648;BME280;23490;53.656;10.076;2023-07-09T06:43:49;96903.50;;;-145.95;49.55
37648;BME280;23490;53.656;10.076;2023-07-09T06:46:19;96878.72;;;-145.95;50.23
37648;BME280;23490;53.656;10.076;2023-07-09T06:48:44;96882.84;;;-145.95;49.15
37648;BME280;23490;53.656;10.076;2023-07-09T06:51:10;96920.00;;;-145.95;49.83
37648;BME280;23490;53.656;10.076;2023-07-09T06:53:35;96862.22;;;-145.95;50.15
37648;BME280;23490;53.656;10.076;2023-07-09T06:56:01;96874.59;;;-145.95;50.11
37648;BME280;23490;53.656;10.076;2023-07-09T06:58:30;96833.31;;;-145.95;49.46
37648;BME280;23490;53.656;10.076;2023-07-09T07:01:01;96835.38;;;-145.95;49.72
37648;BME280;23490;53.656;10.076;2023-07-09T07:03:29;96847.78;;;-145.95;49.13
37648;BME280;23490;53.656;10.076;2023-07-09T07:05:54;96746.66;;;-145.95;49.48
37648;BME280;23490;53.656;10.076;2023-07-09T07:08:22;96726.03;;;-145.95;49.46
37648;BME280;23490;53.656;10.076;2023-07-09T07:10:57;96730.16;;;-145.95;48.56
37648;BME280;23490;53.656;10.076;2023-07-09T07:13:31;96713.63;;;-145.95;48.40
37648;BME280;23490;53.656;10.076;2023-07-09T07:15:57;96738.41;;;-145.95;49.51
37648;BME280;23490;53.656;10.076;2023-07-09T07:18:23;96670.31;;;-145.95;48.75
37648;BME280;23490;53.656;10.076;2023-07-09T07:20:49;96713.63;;;-145.95;47.98
37648;BME280;23490;53.656;10.076;2023-07-09T07:23:14;96693.00;;;-145.95;48.47
37648;BME280;23490;53.656;10.076;2023-07-09T07:25:41;96635.22;;;-145.95;48.84
37648;BME280;23490;53.656;10.076;2023-07-09T07:28:06;96579.50;;;-145.95;48.67
37648;BME280;23490;53.656;10.076;2023-07-09T07:30:32;96585.69;;;-145.95;49.78
37648;BME280;23490;53.656;10.076;2023-07-09T07:32:57;96579.50;;;-145.95;49.25
37648;BME280;23490;53.656;10.076;2023-07-09T07:35:22;96579.50;;;-145.95;47.04
37648;BME280;23490;53.656;10.076;2023-07-09T07:37:48;96511.41;;;-145.95;47.67
37648;BME280;23490;53.656;10.076;2023-07-09T07:40:13;96567.13;;;-145.95;47.05
37648;BME280;23490;53.656;10.076;2023-07-09T07:42:39;96550.63;;;-145.95;46.81
37648;BME280;23490;53.656;10.076;2023-07-09T07:45:05;96490.78;;;-145.95;47.30
37648;BME280;23490;53.656;10.076;2023-07-09T07:47:32;96560.94;;;-145.95;46.48
37648;BME280;23490;53.656;10.076;2023-07-09T07:49:58;96420.63;;;-145.95;46.54
37648;BME280;23490;53.656;10.076;2023-07-09T07:52:23;96453.63;;;-145.95;45.87
37648;BME280;23490;53.656;10.076;2023-07-09T07:54:49;96466.00;;;-145.95;45.46
37648;BME280;23490;53.656;10.076;2023-07-09T07:57:15;96424.75;;;-145.95;46.74
37648;BME280;23490;53.656;10.076;2023-07-09T07:59:41;96371.09;;;-145.95;46.24
37648;BME280;23490;53.656;10.076;2023-07-09T08:02:11;96344.28;;;-145.95;45.69
37648;BME280;23490;53.656;10.076;2023-07-09T08:04:36;96267.94;;;-145.95;46.08
37648;BME280;23490;53.656;10.076;2023-07-09T08:07:02;96336.00;;;-145.95;47.83
37648;BME280;23490;53.656;10.076;2023-07-09T08:09:27;96241.09;;;-145.95;45.89
37648;BME280;23490;53.656;10.076;2023-07-09T08:11:53;96222.53;;;-145.95;45.59
37648;BME280;23490;53.656;10.076;2023-07-09T08:14:19;96265.84;;;-145.95;44.84
37648;BME280;23490;53.656;10.076;2023-07-09T08:16:44;96298.88;;;-145.95;44.41
37648;BME280;23490;53.656;10.076;2023-07-09T08:19:09;96247.28;;;-145.95;45.28
37648;BME280;23490;53.656;10.076;2023-07-09T08:21:35;96210.16;;;-145.95;44.75
37648;BME280;23490;53.656;10.076;2023-07-09T08:24:01;96199.84;;;-145.95;45.04
37648;BME280;23490;53.656;10.076;2023-07-09T08:26:26;96222.53;;;-145.95;46.39
37648;BME280;23490;53.656;10.076;2023-07-09T08:28:53;96137.94;;;-145.95;46.04
37648;BME280;23490;53.656;10.076;2023-07-09T08:31:19;96024.47;;;-145.95;43.27
37648;BME280;23490;53.656;10.076;2023-07-09T08:33:45;96053.34;;;-145.95;43.08
37648;BME280;23490;53.656;10.076;2023-07-09T08:36:10;95979.06;;;-145.95;42.80
37648;BME280;23490;53.656;10.076;2023-07-09T08:38:36;96022.41;;;-145.95;43.33
37648;BME280;23490;53.656;10.076;2023-07-09T08:41:08;95867.66;;;-145.95;44.58
37648;BME280;23490;53.656;10.076;2023-07-09T08:43:58;95900.66;;;-145.95;43.31
37648;BME280;23490;53.656;10.076;2023-07-09T08:46:51;95824.34;;;-145.95;42.98
37648;BME280;23490;53.656;10.076;2023-07-09T08:49:41;95768.63;;;-145.95;42.61
37648;BME280;23490;53.656;10.076;2023-07-09T08:52:25;95682.00;;;-145.95;43.76
37648;BME280;23490;53.656;10.076;2023-07-09T08:54:52;95677.84;;;-145.95;42.54
37648;BME280;23490;53.656;10.076;2023-07-09T08:57:22;95702.63;;;-145.95;41.43
37648;BME280;23490;53.656;10.076;2023-07-09T08:59:55;95719.13;;;-145.95;40.90
37648;BME280;23490;53.656;10.076;2023-07-09T09:02:30;95620.09;;;-145.95;41.97
37648;BME280;23490;53.656;10.076;2023-07-09T09:04:58;95574.72;;;-145.95;41.69
37648;BME280;23490;53.656;10.076;2023-07-09T09:07:34;95529.34;;;-145.95;40.87
37648;BME280;23490;53.656;10.076;2023-07-09T09:10:03;95339.53;;;-145.95;40.10
37648;BME280;23490;53.656;10.076;2023-07-09T09:12:36;95271.47;;;-145.95;40.42
37648;BME280;23490;53.656;10.076;2023-07-09T09:15:09;95145.66;;;-145.95;39.07
37648;BME280;23490;53.656;10.076;2023-07-09T09:17:38;95141.53;;;-145.95;39.84
37648;BME280;23490;53.656;10.076;2023-07-09T09:20:08;95182.78;;;-145.95;39.01
37648;BME280;23490;53.656;10.076;2023-07-09T09:22:56;95273.53;;;-145.95;40.94
37648;BME280;23490;53.656;10.076;2023-07-09T09:25:27;95166.28;;;-145.95;40.91
37648;BME280;23490;53.656;10.076;2023-07-09T09:27:54;95026.03;;;-145.95;38.96
37648;BME280;23490;53.656;10.076;2023-07-09T09:30:22;95108.53;;;-145.95;39.62
37648;BME280;23490;53.656;10.076;2023-07-09T09:32:53;95050.78;;;-145.95;39.59
37648;BME280;23490;53.656;10.076;2023-07-09T09:35:19;95168.34;;;-145.95;39.41
37648;BME280;23490;53.656;10.076;2023-07-09T09:37:53;95092.03;;;-145.95;38.31
37648;BME280;23490;53.656;10.076;2023-07-09T09:40:20;95046.66;;;-145.95;38.29
37648;BME280;23490;53.656;10.076;2023-07-09T09:42:49;94964.13;;;-145.95;37.86
37648;BME280;23490;53.656;10.076;2023-07-09T09:45:17;95104.41;;;-145.95;38.94
37648;BME280;23490;53.656;10.076;2023-07-09T09:47:44;94931.13;;;-145.95;38.09
37648;BME280;23490;53.656;10.076;2023-07-09T09:50:14;94980.66;;;-145.95;37.46
37648;BME280;23490;53.656;10.076;2023-07-09T09:52:40;94786.75;;;-145.95;36.70
37648;BME280;23490;53.656;10.076;2023-07-09T09:55:28;94780.56;;;-145.95;37.00
37648;BME280;23490;53.656;10.076;2023-07-09T09:57:54;94704.28;;;-145.95;37.24
37648;BME280;23490;53.656;10.076;2023-07-09T10:00:27;94708.41;;;-145.95;36.43
37648;BME280;23490;53.656;10.076;2023-07-09T10:02:58;94830.06;;;-145.95;37.02
37648;BME280;23490;53.656;10.076;2023-07-09T10:05:32;94683.66;;;-145.95;36.93
37648;BME280;23490;53.656;10.076;2023-07-09T10:08:03;94683.66;;;-145.95;35.82
37648;BME280;23490;53.656;10.076;2023-07-09T10:10:33;94745.50;;;-145.95;36.13
37648;BME280;23490;53.656;10.076;2023-07-09T10:13:13;94465.03;;;-145.95;35.76
37648;BME280;23490;53.656;10.076;2023-07-09T10:16:01;94634.16;;;-145.95;38.25
37648;BME280;23490;53.656;10.076;2023-07-09T10:21:06;94564.03;;;-145.95;36.38
37648;BME280;23490;53.656;10.076;2023-07-09T10:23:36;94460.91;;;-145.95;36.40
37648;BME280;23490;53.656;10.076;2023-07-09T10:31:55;94337.19;;;-145.95;36.28
37648;BME280;23490;53.656;10.076;2023-07-09T10:40:03;94394.91;;;-145.95;34.67
37648;BME280;23490;53.656;10.076;2023-07-09T10:42:43;94394.91;;;-145.95;34.75
37648;BME280;23490;53.656;10.076;2023-07-09T10:45:16;94242.31;;;-145.95;34.38
37648;BME280;23490;53.656;10.076;2023-07-09T10:48:03;94287.69;;;-145.95;35.15
37648;BME280;23490;53.656;10.076;2023-07-09T10:50:37;94196.94;;;-145.95;34.43
37648;BME280;23490;53.656;10.076;2023-07-09T10:53:28;94087.66;;;-145.95;34.59
37648;BME280;23490;53.656;10.076;2023-07-09T10:56:04;93850.53;;;-145.95;34.36
37648;BME280;23490;53.656;10.076;2023-07-09T10:58:37;94153.66;;;-145.95;34.22
37648;BME280;23490;53.656;10.076;2023-07-09T11:01:04;94366.06;;;-145.95;34.52
37648;BME280;23490;53.656;10.076;2023-07-09T11:05:58;94122.72;;;-145.95;36.77
37648;BME280;23490;53.656;10.076;2023-07-09T11:08:44;94304.19;;;-145.95;34.02
37648;BME280;23490;53.656;10.076;2023-07-09T11:11:17;94353.69;;;-145.95;32.97
37648;BME280;23490;53.656;10.076;2023-07-09T11:13:53;94011.38;;;-145.95;34.08
37648;BME280;23490;53.656;10.076;2023-07-09T11:16:30;94042.28;;;-145.95;32.74
37648;BME280;23490;53.656;10.076;2023-07-09T11:19:00;93862.91;;;-145.95;32.69
37648;BME280;23490;53.656;10.076;2023-07-09T11:21:26;93916.53;;;-145.95;33.33
37648;BME280;23490;53.656;10.076;2023-07-09T11:23:58;93992.81;;;-145.95;33.12
37648;BME280;23490;53.656;10.076;2023-07-09T11:26:34;94093.84;;;-145.95;32.78
37648;BME280;23490;53.656;10.076;2023-07-09T11:29:11;93838.16;;;-145.95;33.55
37648;BME280;23490;53.656;10.076;2023-07-09T11:31:41;93928.88;;;-145.95;32.50
37648;BME280;23490;53.656;10.076;2023-07-09T11:37:01;93887.66;;;-145.95;33.36
37648;BME280;23490;53.656;10.076;2023-07-09T11:42:03;93862.91;;;-145.95;33.02
37648;BME280;23490;53.656;10.076;2023-07-09T11:44:49;93759.81;;;-145.95;32.38
37648;BME280;23490;53.656;10.076;2023-07-09T11:49:47;93904.16;;;-145.95;31.89
37648;BME280;23490;53.656;10.076;2023-07-09T11:52:15;93487.66;;;-145.95;32.77
37648;BME280;23490;53.656;10.076;2023-07-09T11:54:43;93380.44;;;-145.95;31.17
37648;BME280;23490;53.656;10.076;2023-07-09T11:57:12;93669.09;;;-145.95;32.16
37648;BME280;23490;53.656;10.076;2023-07-09T11:59:41;93607.25;;;-145.95;32.24
37648;BME280;23490;53.656;10.076;2023-07-09T12:02:19;93537.13;;;-145.95;31.93
37648;BME280;23490;53.656;10.076;2023-07-09T12:04:48;93475.28;;;-145.95;30.73
37648;BME280;23490;53.656;10.076;2023-07-09T12:07:15;93458.78;;;-145.95;30.94
37648;BME280;23490;53.656;10.076;2023-07-09T12:09:46;94019.63;;;-145.95;31.58
37648;BME280;23490;53.656;10.076;2023-07-09T12:12:23;93933.00;;;-145.95;31.18
37648;BME280;23490;53.656;10.076;2023-07-09T12:14:49;93790.75;;;-145.95;31.63
37648;BME280;23490;53.656;10.076;2023-07-09T12:17:14;93526.84;;;-145.95;30.58
37648;BME280;23490;53.656;10.076;2023-07-09T12:19:39;93941.25;;;-145.95;30.98
37648;BME280;23490;53.656;10.076;2023-07-09T12:22:09;93730.94;;;-145.95;30.88
37648;BME280;23490;53.656;10.076;2023-07-09T12:24:38;93755.69;;;-145.95;30.24
37648;BME280;23490;53.656;10.076;2023-07-09T12:27:18;93914.44;;;-145.95;30.96
37648;BME280;23490;53.656;10.076;2023-07-09T12:29:44;93813.41;;;-145.95;29.95
37648;BME280;23490;53.656;10.076;2023-07-09T12:32:16;93673.22;;;-145.95;29.64
37648;BME280;23490;53.656;10.076;2023-07-09T12:34:41;93840.22;;;-145.95;31.14
37648;BME280;23490;53.656;10.076;2023-07-09T12:37:13;93693.84;;;-145.95;30.21
37648;BME280;23490;53.656;10.076;2023-07-09T12:39:39;93904.16;;;-145.95;29.46
37648;BME280;23490;53.656;10.076;2023-07-09T12:42:05;93920.66;;;-145.95;29.15
37648;BME280;23490;53.656;10.076;2023-07-09T12:44:34;93877.34;;;-145.95;29.53
37648;BME280;23490;53.656;10.076;2023-07-09T12:47:01;94151.59;;;-145.95;31.25
37648;BME280;23490;53.656;10.076;2023-07-09T12:49:37;93883.53;;;-145.95;30.70
37648;BME280;23490;53.656;10.076;2023-07-09T12:52:11;94147.47;;;-145.95;30.78
37648;BME280;23490;53.656;10.076;2023-07-09T12:54:37;93994.88;;;-145.95;30.41
37648;BME280;23490;53.656;10.076;2023-07-09T12:57:13;93895.91;;;-145.95;30.27
37648;BME280;23490;53.656;10.076;2023-07-09T12:59:39;93763.94;;;-145.95;31.16